Time;durP1;ratioP1;P1;durP2;ratioP2;P2;SDS_P1;SDS_P2;PMS_P1;PMS_P2;Temp;Humidity;BMP_temperature;BMP_pressure;BME280_temperature;BME280_humidity;BME280_pressure;Samples;Min_cycle;Max_cycle;Signal;HPM_P1;HPM_P2
2023/01/17 00:01:32;;;;;;;11.87;5.90;;;4.80;99.90;;;;;;4225535;28;20035;-66
2023/01/17 00:09:51;;;;;;;9.10;6.50;;;4.90;99.90;;;;;;4228331;28;20052;-62
2023/01/17 00:10:39;;;;;;;11.67;5.83;;;5.00;99.90;;;;;;4210238;28;20318;-64
2023/01/17 00:12:49;;;;;;;9.83;5.87;;;5.00;99.90;;;;;;4211189;28;20245;-71
2023/01/17 00:14:52;;;;;;;13.40;6.13;;;5.00;99.90;;;;;;4209317;28;20040;-65
2023/01/17 00:16:53;;;;;;;9.50;4.80;;;5.00;99.90;;;;;;4211502;28;20337;-64
2023/01/17 01:35:21;;;;;;;7.30;3.73;;;5.50;99.90;;;;;;4229948;28;20055;-70
2023/01/17 01:37:22;;;;;;;9.93;4.70;;;5.50;99.90;;;;;;4228856;28;20096;-66
2023/01/17 01:39:23;;;;;;;12.00;5.67;;;5.60;99.90;;;;;;4230053;28;20031;-63
2023/01/17 01:41:24;;;;;;;10.13;5.07;;;5.60;99.90;;;;;;4228830;28;20032;-71
2023/01/17 01:43:46;;;;;;;7.27;4.90;;;5.60;99.90;;;;;;4229873;28;20031;-71
2023/01/17 01:45:54;;;;;;;9.60;5.10;;;5.50;99.90;;;;;;4228428;28;20023;-66
2023/01/17 01:48:21;;;;;;;7.07;4.53;;;5.60;99.90;;;;;;4229979;28;20047;-70
2023/01/17 01:50:22;;;;;;;10.43;5.07;;;5.50;99.90;;;;;;4227938;28;20031;-67
2023/01/17 01:52:27;;;;;;;11.70;4.83;;;5.50;99.90;;;;;;4228238;28;20105;-67
2023/01/17 01:54:55;;;;;;;10.67;5.90;;;5.50;99.90;;;;;;4228514;28;20567;-63
2023/01/17 01:56:59;;;;;;;11.90;6.53;;;5.60;99.90;;;;;;4229451;27;20121;-72
2023/01/17 01:59:03;;;;;;;11.67;6.37;;;5.50;99.90;;;;;;4228437;28;20040;-63
2023/01/17 02:01:06;;;;;;;11.23;6.17;;;5.40;99.90;;;;;;4229511;28;20536;-62
2023/01/17 02:03:24;;;;;;;13.27;6.73;;;5.30;99.90;;;;;;4228415;28;20491;-62
2023/01/17 02:05:27;;;;;;;12.73;6.40;;;5.30;99.90;;;;;;4229554;28;20116;-62
2023/01/17 02:07:34;;;;;;;10.93;6.70;;;5.20;99.90;;;;;;4227321;28;20112;-65
2023/01/17 02:09:35;;;;;;;12.33;7.13;;;5.20;99.90;;;;;;4229535;28;20028;-66
2023/01/17 02:11:39;;;;;;;10.80;5.97;;;5.20;99.90;;;;;;4228291;28;20825;-62
2023/01/17 02:13:40;;;;;;;10.83;6.00;;;5.20;99.90;;;;;;4229413;28;20031;-65
2023/01/17 02:15:44;;;;;;;11.87;6.90;;;5.20;99.90;;;;;;4227959;28;20043;-62
2023/01/17 02:18:20;;;;;;;7.90;4.63;;;5.20;99.90;;;;;;4229781;28;20040;-67
2023/01/17 02:20:46;;;;;;;8.83;5.03;;;5.30;99.90;;;;;;4228219;28;20073;-62
2023/01/17 02:23:07;;;;;;;10.27;5.60;;;5.30;99.90;;;;;;4229341;28;20031;-64
2023/01/17 02:25:14;;;;;;;9.20;5.80;;;5.30;99.90;;;;;;4227885;28;20035;-63
2023/01/17 02:27:23;;;;;;;11.93;7.23;;;5.20;99.90;;;;;;4229210;28;20023;-63
2023/01/17 02:29:51;;;;;;;11.53;6.00;;;5.20;99.90;;;;;;4227592;28;20031;-65
2023/01/17 02:32:04;;;;;;;11.37;6.67;;;5.20;99.90;;;;;;4228804;28;20475;-66
2023/01/17 02:34:16;;;;;;;12.67;7.07;;;5.10;99.90;;;;;;4227973;28;20023;-70
2023/01/17 02:36:27;;;;;;;10.07;6.33;;;5.10;99.90;;;;;;4228359;28;20067;-62
2023/01/17 02:38:35;;;;;;;;;;;5.20;99.90;;;;;;4228648;28;20032;-63
2023/01/17 02:40:45;;;;;;;10.37;5.87;;;5.20;99.90;;;;;;4228678;28;19915;-71
2023/01/17 02:43:01;;;;;;;7.18;4.55;;;5.30;99.90;;;;;;4228082;28;20430;-64
2023/01/17 02:45:03;;;;;;;8.57;4.90;;;5.30;99.90;;;;;;4227993;28;20043;-71
2023/01/17 02:47:21;;;;;;;12.17;5.93;;;5.30;99.90;;;;;;4227773;28;20085;-73
2023/01/17 02:49:29;;;;;;;8.63;5.13;;;5.40;99.90;;;;;;4228501;28;20831;-70
2023/01/17 02:51:39;;;;;;;10.83;5.40;;;5.40;99.90;;;;;;4227985;28;20426;-72
2023/01/17 02:54:02;;;;;;;9.40;5.23;;;5.50;99.90;;;;;;4227322;28;20394;-68
2023/01/17 02:56:48;;;;;;;12.40;6.13;;;5.50;99.90;;;;;;4224024;28;20299;-62
2023/01/17 02:59:02;;;;;;;9.93;5.07;;;5.50;99.90;;;;;;4211062;28;20085;-63
2023/01/17 03:01:03;;;;;;;9.47;5.73;;;5.50;99.90;;;;;;4228430;28;20016;-65
2023/01/17 03:03:42;;;;;;;8.30;5.13;;;5.50;99.90;;;;;;4227495;28;20032;-63
2023/01/17 03:05:53;;;;;;;8.10;5.20;;;5.50;99.90;;;;;;4210265;28;20052;-65
2023/01/17 03:07:55;;;;;;;8.60;4.57;;;5.50;99.90;;;;;;4210658;28;20039;-72
2023/01/17 03:10:00;;;;;;;7.10;4.70;;;5.50;99.90;;;;;;4211655;28;20077;-73
2023/01/17 03:12:03;;;;;;;6.87;4.07;;;5.50;99.90;;;;;;4210577;28;20035;-71
2023/01/17 03:14:04;;;;;;;9.73;5.50;;;5.50;99.90;;;;;;4211736;28;20433;-66
2023/01/17 03:16:11;;;;;;;12.97;5.77;;;5.60;99.90;;;;;;4210315;28;20036;-63
2023/01/17 03:18:14;;;;;;;10.20;5.23;;;5.60;99.90;;;;;;4211829;28;20472;-70
2023/01/17 03:20:16;;;;;;;9.57;5.60;;;5.60;99.90;;;;;;4210513;28;20419;-64
2023/01/17 03:22:17;;;;;;;8.07;5.20;;;5.50;99.90;;;;;;4211244;28;20369;-65
2023/01/17 03:24:18;;;;;;;8.27;4.50;;;5.50;99.90;;;;;;4217894;28;20496;-64
2023/01/17 03:26:19;;;;;;;7.10;4.40;;;5.40;99.90;;;;;;4227534;28;20019;-71
2023/01/17 03:28:20;;;;;;;7.53;4.37;;;5.50;99.90;;;;;;4227785;28;20028;-64
2023/01/17 03:30:21;;;;;;;8.87;4.60;;;5.50;99.90;;;;;;4226818;28;20437;-63
2023/01/17 03:32:23;;;;;;;7.70;4.70;;;5.50;99.90;;;;;;4228163;28;20032;-67
2023/01/17 03:34:24;;;;;;;8.87;4.53;;;5.60;99.90;;;;;;4226785;28;20027;-72
2023/01/17 03:36:25;;;;;;;7.30;4.90;;;5.50;99.90;;;;;;4228295;28;20483;-63
2023/01/17 03:38:27;;;;;;;7.37;4.70;;;5.50;99.90;;;;;;4227125;28;20077;-70
2023/01/17 03:40:28;;;;;;;5.90;3.60;;;5.40;99.90;;;;;;4228258;28;20023;-71
2023/01/17 03:42:29;;;;;;;3.93;2.77;;;5.60;99.90;;;;;;4227100;28;20077;-65
2023/01/17 03:44:34;;;;;;;3.63;2.37;;;5.60;99.90;;;;;;4227889;28;20048;-69
2023/01/17 03:46:35;;;;;;;4.53;2.33;;;5.80;99.90;;;;;;4227029;28;20312;-71
2023/01/17 03:48:39;;;;;;;2.40;1.90;;;6.00;99.90;;;;;;4228389;28;20085;-67
2023/01/17 03:50:41;;;;;;;7.27;4.53;;;6.10;99.90;;;;;;4227157;28;20031;-62
2023/01/17 03:52:42;;;;;;;8.13;4.77;;;6.10;99.90;;;;;;4228153;28;20065;-69
2023/01/17 03:54:43;;;;;;;7.33;4.50;;;6.00;99.90;;;;;;4226618;28;20121;-63
2023/01/17 03:56:44;;;;;;;8.07;5.30;;;5.80;99.90;;;;;;4227266;28;20372;-62
2023/01/17 03:58:45;;;;;;;9.97;5.60;;;5.70;99.90;;;;;;4225248;28;20039;-61
2023/01/17 04:00:46;;;;;;;8.90;5.07;;;5.50;99.90;;;;;;4227057;28;20024;-71
2023/01/17 04:02:47;;;;;;;9.67;5.77;;;5.40;99.90;;;;;;4227667;28;20117;-64
2023/01/17 04:04:50;;;;;;;10.13;6.13;;;5.40;99.90;;;;;;4226735;28;20020;-65
2023/01/17 04:06:51;;;;;;;10.83;5.97;;;5.40;99.90;;;;;;4227941;28;20070;-65
2023/01/17 04:08:52;;;;;;;11.43;6.90;;;5.40;99.90;;;;;;4225770;28;20039;-71
2023/01/17 04:10:53;;;;;;;8.30;4.63;;;5.40;99.90;;;;;;4226544;28;20470;-62
2023/01/17 04:12:54;;;;;;;9.23;5.30;;;5.40;99.90;;;;;;4226751;28;20470;-68
2023/01/17 04:14:56;;;;;;;7.27;3.93;;;5.40;99.90;;;;;;4227588;28;20039;-62
2023/01/17 04:16:58;;;;;;;7.47;4.37;;;5.40;99.90;;;;;;4227086;28;20039;-60
2023/01/17 04:18:59;;;;;;;6.17;3.47;;;5.50;99.90;;;;;;4227800;28;20386;-61
2023/01/17 04:21:00;;;;;;;5.07;2.77;;;5.70;99.90;;;;;;4226798;28;20024;-71
2023/01/17 04:23:02;;;;;;;5.50;3.37;;;5.80;99.90;;;;;;4227161;28;20040;-63
2023/01/17 04:25:03;;;;;;;5.17;3.30;;;5.90;99.90;;;;;;4226635;28;20058;-63
2023/01/17 04:27:05;;;;;;;2.13;1.47;;;6.00;99.90;;;;;;4227195;28;20438;-66
2023/01/17 04:29:06;;;;;;;4.80;3.00;;;6.10;99.90;;;;;;4224786;28;20039;-69
2023/01/17 04:31:14;;;;;;;3.77;1.80;;;6.30;99.90;;;;;;4228114;28;20500;-69
2023/01/17 04:33:15;;;;;;;4.87;2.97;;;6.40;99.90;;;;;;4230277;28;20031;-63
2023/01/17 04:35:16;;;;;;;2.87;2.13;;;6.40;99.90;;;;;;4229739;28;20043;-70
2023/01/17 04:37:17;;;;;;;3.83;2.47;;;6.40;99.90;;;;;;4230316;28;20109;-69
2023/01/17 04:39:19;;;;;;;3.13;1.80;;;6.50;99.90;;;;;;4229411;28;20040;-71
2023/01/17 04:41:20;;;;;;;2.13;1.87;;;6.50;99.90;;;;;;4230185;28;20036;-71
2023/01/17 04:43:21;;;;;;;3.33;2.30;;;6.40;99.90;;;;;;4229304;28;20051;-68
2023/01/17 04:45:22;;;;;;;2.20;1.83;;;6.40;99.90;;;;;;4229018;28;20077;-66
2023/01/17 04:47:23;;;;;;;3.97;2.30;;;6.40;99.90;;;;;;4229359;28;20043;-67
2023/01/17 04:49:24;;;;;;;4.20;2.53;;;6.30;99.90;;;;;;4230192;28;20036;-62
2023/01/17 04:51:25;;;;;;;3.00;2.07;;;6.30;99.90;;;;;;4229372;28;20059;-65
2023/01/17 04:53:27;;;;;;;1.70;1.60;;;6.30;99.90;;;;;;4230545;28;20031;-63
2023/01/17 04:55:28;;;;;;;2.27;1.60;;;6.30;99.90;;;;;;4229595;28;20077;-65
2023/01/17 04:57:29;;;;;;;2.00;1.70;;;6.40;99.90;;;;;;4229900;28;20051;-63
2023/01/17 04:59:31;;;;;;;2.13;1.60;;;6.40;99.90;;;;;;4228985;28;20089;-64
2023/01/17 05:01:32;;;;;;;3.10;2.00;;;6.50;99.90;;;;;;4228656;28;20088;-62
2023/01/17 05:03:33;;;;;;;2.43;1.80;;;6.50;99.90;;;;;;4228475;28;20084;-61
2023/01/17 05:05:34;;;;;;;2.90;1.90;;;6.60;99.90;;;;;;4223504;27;20101;-63
2023/01/17 05:07:35;;;;;;;4.87;1.73;;;6.60;99.90;;;;;;4226843;27;20073;-63
2023/01/17 05:09:36;;;;;;;3.17;2.10;;;6.60;99.90;;;;;;4226770;28;20084;-64
2023/01/17 05:11:38;;;;;;;3.37;1.50;;;6.70;99.90;;;;;;4228731;28;20028;-63
2023/01/17 05:13:39;;;;;;;2.53;1.60;;;6.70;99.90;;;;;;4228431;28;20028;-62
2023/01/17 05:15:40;;;;;;;3.03;1.80;;;6.60;99.90;;;;;;4229603;27;20113;-65
2023/01/17 05:17:41;;;;;;;3.73;1.80;;;6.60;99.90;;;;;;4229143;27;20455;-68
2023/01/17 05:19:42;;;;;;;3.53;2.33;;;6.60;99.90;;;;;;4229016;27;20591;-68
2023/01/17 05:21:43;;;;;;;3.93;2.17;;;6.60;99.90;;;;;;4228307;28;20369;-63
2023/01/17 05:23:44;;;;;;;4.83;2.60;;;6.50;99.90;;;;;;4230168;28;20148;-62
2023/01/17 05:25:46;;;;;;;5.40;3.33;;;6.50;99.90;;;;;;4228854;28;20564;-62
2023/01/17 05:27:47;;;;;;;5.10;2.83;;;6.40;99.90;;;;;;4229528;28;20031;-66
2023/01/17 05:29:48;;;;;;;7.90;3.37;;;6.40;99.90;;;;;;4228211;28;20043;-63
2023/01/17 05:31:49;;;;;;;4.53;3.03;;;6.30;99.90;;;;;;4227848;27;20073;-62
2023/01/17 05:33:50;;;;;;;4.70;3.07;;;6.30;99.90;;;;;;4228972;28;20108;-62
2023/01/17 05:35:51;;;;;;;4.20;2.73;;;6.20;99.90;;;;;;4228617;28;20055;-67
2023/01/17 05:37:53;;;;;;;6.57;4.33;;;6.10;99.90;;;;;;4229105;28;20039;-64
2023/01/17 05:39:54;;;;;;;4.77;3.20;;;6.00;99.90;;;;;;4228468;28;20044;-62
2023/01/17 05:41:55;;;;;;;4.97;3.30;;;5.90;99.90;;;;;;4229379;28;20047;-61
2023/01/17 05:43:56;;;;;;;4.53;3.13;;;5.90;99.90;;;;;;4228515;28;20479;-62
2023/01/17 05:45:57;;;;;;;3.70;2.67;;;5.90;99.90;;;;;;4229389;28;20024;-61
2023/01/17 05:47:59;;;;;;;2.93;2.47;;;5.90;99.90;;;;;;4228886;28;20164;-68
2023/01/17 05:50:00;;;;;;;8.27;4.33;;;5.90;99.90;;;;;;4227765;28;20564;-61
2023/01/17 05:52:01;;;;;;;2.43;2.00;;;6.00;99.90;;;;;;4228295;28;20039;-65
2023/01/17 05:54:05;;;;;;;4.17;2.67;;;6.10;99.90;;;;;;4229228;28;20080;-71
2023/01/17 05:56:07;;;;;;;4.33;2.77;;;6.30;99.90;;;;;;4228252;28;20492;-61
2023/01/17 05:58:17;;;;;;;3.47;2.33;;;6.40;99.90;;;;;;4229282;28;20088;-64
2023/01/17 06:00:19;;;;;;;3.72;2.60;;;6.40;99.90;;;;;;4228145;28;20545;-62
2023/01/17 06:02:20;;;;;;;4.13;2.33;;;6.40;99.90;;;;;;4229159;28;20084;-62
2023/01/17 06:04:21;;;;;;;3.23;2.40;;;6.40;99.90;;;;;;4228521;28;20044;-62
2023/01/17 06:06:22;;;;;;;3.53;2.23;;;6.40;99.90;;;;;;4228481;28;20073;-61
2023/01/17 06:08:23;;;;;;;3.13;2.53;;;6.40;99.90;;;;;;4228788;28;20016;-62
2023/01/17 06:10:25;;;;;;;3.87;2.50;;;6.30;99.90;;;;;;4228110;28;20036;-63
2023/01/17 06:12:27;;;;;;;4.83;2.90;;;6.40;99.90;;;;;;4229038;28;21023;-62
2023/01/17 06:14:28;;;;;;;4.00;2.93;;;6.30;99.90;;;;;;4227709;28;20100;-62
2023/01/17 06:16:29;;;;;;;2.53;2.03;;;6.30;99.90;;;;;;4228892;28;20044;-62
2023/01/17 06:18:30;;;;;;;6.47;3.00;;;6.20;99.90;;;;;;4228186;28;20027;-61
2023/01/17 06:20:32;;;;;;;4.87;2.87;;;6.20;99.90;;;;;;4228776;28;20167;-62
2023/01/17 06:22:34;;;;;;;5.73;4.00;;;6.10;99.90;;;;;;4227557;28;20048;-62
2023/01/17 06:24:35;;;;;;;5.10;3.77;;;6.10;99.90;;;;;;4228745;28;20081;-64
2023/01/17 06:26:36;;;;;;;5.87;3.57;;;6.00;99.90;;;;;;4227745;28;20422;-64
2023/01/17 06:28:37;;;;;;;6.30;3.60;;;5.90;99.90;;;;;;4228928;28;20019;-64
2023/01/17 06:30:39;;;;;;;6.70;4.13;;;5.80;99.90;;;;;;4227481;28;20035;-61
2023/01/17 06:32:40;;;;;;;8.40;4.50;;;5.70;99.90;;;;;;4228432;28;20020;-61
2023/01/17 06:34:41;;;;;;;9.33;5.27;;;5.60;99.90;;;;;;4226992;28;20051;-70
2023/01/17 06:36:42;;;;;;;6.67;4.30;;;5.60;99.90;;;;;;4227696;28;20047;-62
2023/01/17 06:38:43;;;;;;;7.63;4.33;;;5.50;99.90;;;;;;4227818;28;20492;-67
2023/01/17 06:40:45;;;;;;;5.60;3.37;;;5.50;99.90;;;;;;4227785;28;20126;-64
2023/01/17 06:42:47;;;;;;;6.37;4.47;;;5.40;99.90;;;;;;4228438;28;20024;-61
2023/01/17 06:44:48;;;;;;;7.43;4.20;;;5.50;99.90;;;;;;4227106;28;20035;-65
2023/01/17 06:46:49;;;;;;;5.70;4.13;;;5.40;99.90;;;;;;4228321;28;20528;-68
2023/01/17 06:48:50;;;;;;;10.60;5.00;;;5.40;99.90;;;;;;4227446;28;20023;-60
2023/01/17 06:50:51;;;;;;;9.77;5.33;;;5.40;99.90;;;;;;4228488;28;20069;-62
2023/01/17 06:52:58;;;;;;;9.23;5.13;;;5.30;99.90;;;;;;4226540;28;20047;-63
2023/01/17 06:54:59;;;;;;;9.23;5.03;;;5.30;99.90;;;;;;4228130;28;20043;-63
2023/01/17 06:57:00;;;;;;;12.07;5.83;;;5.30;99.90;;;;;;4227170;28;20745;-60
2023/01/17 06:59:02;;;;;;;9.97;5.13;;;5.30;99.90;;;;;;4228057;28;20039;-65
2023/01/17 07:01:07;;;;;;;11.50;4.93;;;5.30;99.90;;;;;;4226468;28;20140;-61
2023/01/17 07:03:23;;;;;;;8.30;4.93;;;5.40;99.90;;;;;;4228339;28;20032;-62
2023/01/17 07:05:24;;;;;;;10.10;4.80;;;5.30;99.90;;;;;;4227381;28;20088;-61
2023/01/17 07:07:25;;;;;;;9.43;5.03;;;5.40;99.90;;;;;;4228179;28;20039;-60
2023/01/17 07:09:27;;;;;;;9.63;5.60;;;5.40;99.90;;;;;;4226089;28;20020;-61
2023/01/17 07:11:28;;;;;;;7.40;4.73;;;5.40;99.90;;;;;;4227833;28;20024;-61
2023/01/17 07:13:32;;;;;;;6.83;4.50;;;5.40;99.90;;;;;;4227578;28;20028;-61
2023/01/17 07:15:33;;;;;;;9.70;5.57;;;5.40;99.90;;;;;;4227539;28;20027;-62
2023/01/17 07:17:34;;;;;;;9.40;5.50;;;5.40;99.90;;;;;;4227770;28;20081;-65
2023/01/17 07:19:35;;;;;;;6.83;4.10;;;5.40;99.90;;;;;;4227662;28;20028;-61
2023/01/17 07:21:36;;;;;;;11.53;4.07;;;5.50;99.90;;;;;;4227896;28;20028;-63
2023/01/17 07:23:37;;;;;;;6.97;4.23;;;5.50;99.90;;;;;;4226842;28;20085;-60
2023/01/17 07:25:38;;;;;;;5.43;3.57;;;5.60;99.90;;;;;;4227902;28;20484;-61
2023/01/17 07:27:39;;;;;;;5.07;2.93;;;5.70;99.90;;;;;;4226685;28;20139;-60
2023/01/17 07:29:40;;;;;;;11.60;6.27;;;5.80;99.90;;;;;;4227647;28;20031;-61
2023/01/17 07:31:42;;;;;;;10.70;6.33;;;5.80;99.90;;;;;;4226890;28;20077;-65
2023/01/17 07:33:43;;;;;;;15.60;7.63;;;5.70;99.90;;;;;;4227797;28;20548;-63
2023/01/17 07:35:45;;;;;;;11.93;6.30;;;5.50;99.90;;;;;;4226587;28;20035;-61
2023/01/17 07:37:48;;;;;;;14.90;6.23;;;5.50;99.90;;;;;;4227973;28;20120;-62
2023/01/17 07:39:49;;;;;;;13.77;6.60;;;5.50;99.90;;;;;;4226904;28;20028;-62
2023/01/17 07:41:50;;;;;;;11.67;4.23;;;5.60;99.90;;;;;;4227634;28;20463;-62
2023/01/17 07:43:51;;;;;;;12.27;6.37;;;5.70;99.90;;;;;;4226924;28;20048;-69
2023/01/17 07:45:52;;;;;;;17.03;6.40;;;5.70;99.90;;;;;;4227041;28;20381;-60
2023/01/17 07:47:56;;;;;;;11.50;3.77;;;5.80;99.90;;;;;;4227645;28;20088;-62
2023/01/17 07:49:57;;;;;;;5.23;3.20;;;5.90;99.90;;;;;;4227010;28;20039;-63
2023/01/17 07:51:59;;;;;;;5.07;2.93;;;6.00;99.90;;;;;;4227715;28;20724;-62
2023/01/17 07:54:00;;;;;;;4.43;2.80;;;6.20;99.90;;;;;;4226725;28;20035;-61
2023/01/17 07:56:06;;;;;;;6.43;3.00;;;6.40;99.90;;;;;;4227474;28;20023;-61
2023/01/17 07:58:10;;;;;;;3.13;2.20;;;6.40;99.90;;;;;;4226241;28;20480;-63
2023/01/17 08:00:11;;;;;;;4.20;2.73;;;6.50;99.90;;;;;;4226203;28;20027;-62
2023/01/17 08:02:18;;;;;;;5.00;3.00;;;6.60;99.90;;;;;;4226112;28;20077;-61
2023/01/17 08:04:20;;;;;;;4.13;2.53;;;6.60;99.90;;;;;;4227080;28;20036;-62
2023/01/17 08:06:25;;;;;;;4.63;2.70;;;6.70;99.90;;;;;;4229664;28;20039;-62
2023/01/17 08:08:27;;;;;;;4.53;2.00;;;6.70;99.90;;;;;;4231327;28;20036;-62
2023/01/17 08:10:28;;;;;;;5.83;2.63;;;6.80;99.90;;;;;;4230021;28;20031;-62
2023/01/17 08:12:29;;;;;;;9.30;3.17;;;6.80;99.90;;;;;;4231486;28;20040;-61
2023/01/17 08:14:31;;;;;;;13.70;4.07;;;6.80;99.90;;;;;;4229924;28;20039;-62
2023/01/17 08:16:32;;;;;;;7.30;4.40;;;6.80;99.90;;;;;;4230483;28;20085;-64
2023/01/17 08:18:33;;;;;;;6.70;3.13;;;6.80;99.90;;;;;;4230195;28;20043;-61
2023/01/17 08:20:34;;;;;;;10.33;3.50;;;6.70;99.90;;;;;;4230397;28;20035;-62
2023/01/17 08:22:35;;;;;;;5.80;3.83;;;6.70;99.90;;;;;;4230195;28;20020;-62
2023/01/17 08:24:37;;;;;;;6.50;3.67;;;6.80;99.90;;;;;;4229870;28;20540;-62
2023/01/17 08:26:38;;;;;;;8.53;4.10;;;6.80;99.90;;;;;;4230516;28;20369;-61
2023/01/17 08:28:39;;;;;;;7.80;3.67;;;6.90;99.90;;;;;;4229471;28;20211;-62
2023/01/17 08:30:40;;;;;;;6.57;2.13;;;6.90;99.90;;;;;;4230480;28;20109;-61
2023/01/17 08:32:42;;;;;;;3.93;1.80;;;6.90;99.90;;;;;;4229515;28;20482;-63
2023/01/17 08:34:43;;;;;;;3.33;2.70;;;7.10;99.90;;;;;;4230280;28;20426;-61
2023/01/17 08:36:44;;;;;;;2.73;1.80;;;7.20;99.90;;;;;;4229440;28;20085;-65
2023/01/17 08:38:45;;;;;;;1.23;1.10;;;7.30;99.90;;;;;;4230613;28;20027;-61
2023/01/17 08:40:47;;;;;;;3.67;1.97;;;7.40;99.90;;;;;;4229323;28;20023;-61
2023/01/17 08:42:55;;;;;;;1.67;1.23;;;7.50;99.90;;;;;;4230313;28;20081;-61
2023/01/17 08:44:57;;;;;;;1.23;0.60;;;7.60;99.90;;;;;;4229124;28;20422;-62
2023/01/17 08:46:58;;;;;;;0.50;0.50;;;7.80;99.90;;;;;;4230335;28;20043;-62
2023/01/17 08:49:00;;;;;;;0.60;0.43;;;7.90;99.90;;;;;;4229528;28;20019;-62
2023/01/17 08:51:02;;;;;;;1.17;1.07;;;8.00;99.90;;;;;;4229749;28;20052;-61
2023/01/17 08:53:03;;;;;;;0.70;0.70;;;8.00;99.90;;;;;;4229435;28;20103;-62
2023/01/17 08:55:05;;;;;;;1.87;0.47;;;8.10;99.90;;;;;;4229395;28;20088;-63
2023/01/17 08:57:06;;;;;;;1.03;0.60;;;8.00;99.90;;;;;;4229567;28;20445;-61
2023/01/17 08:59:10;;;;;;;0.90;0.80;;;8.00;99.90;;;;;;4229250;28;20086;-61
2023/01/17 09:01:11;;;;;;;1.27;0.30;;;8.00;99.90;;;;;;4229817;28;20413;-61
2023/01/17 09:03:12;;;;;;;1.00;0.50;;;7.90;99.90;;;;;;4228688;28;20077;-61
2023/01/17 09:05:13;;;;;;;1.43;0.60;;;7.90;99.90;;;;;;4229374;28;20516;-62
2023/01/17 09:07:16;;;;;;;0.93;0.37;;;8.00;99.90;;;;;;4228984;28;20361;-61
2023/01/17 09:09:17;;;;;;;0.73;0.50;;;8.00;99.90;;;;;;4230227;28;20032;-64
2023/01/17 09:11:18;;;;;;;0.50;0.40;;;8.00;99.90;;;;;;4228772;28;20136;-61
2023/01/17 09:13:20;;;;;;;0.97;0.33;;;8.00;99.90;;;;;;4229716;28;20081;-61
2023/01/17 09:15:21;;;;;;;1.67;0.30;;;8.10;99.90;;;;;;4228667;28;20449;-62
2023/01/17 09:17:22;;;;;;;1.83;0.53;;;8.20;99.90;;;;;;4229375;28;20080;-61
2023/01/17 09:19:23;;;;;;;1.33;0.40;;;8.20;99.90;;;;;;4229092;28;20024;-63
2023/01/17 09:21:25;;;;;;;0.67;0.50;;;8.30;99.90;;;;;;4229264;28;20039;-61
2023/01/17 09:23:28;;;;;;;0.80;0.70;;;8.30;99.90;;;;;;4228826;28;20975;-62
2023/01/17 09:25:29;;;;;;;0.97;0.50;;;8.40;99.90;;;;;;4229492;28;20132;-62
2023/01/17 09:27:30;;;;;;;0.60;0.27;;;8.40;99.90;;;;;;4228813;28;20024;-63
2023/01/17 09:29:32;;;;;;;0.70;0.30;;;8.40;99.90;;;;;;4228379;28;20089;-63
2023/01/17 09:31:33;;;;;;;6.30;1.77;;;8.50;99.90;;;;;;4229473;28;20126;-61
2023/01/17 09:33:35;;;;;;;3.30;0.50;;;8.60;99.90;;;;;;4228623;28;20085;-62
2023/01/17 09:35:36;;;;;;;1.03;0.50;;;8.70;99.90;;;;;;4229490;28;20097;-63
2023/01/17 09:37:37;;;;;;;0.57;0.40;;;8.70;99.90;;;;;;4228443;28;20163;-62
2023/01/17 09:39:38;;;;;;;2.00;0.50;;;8.80;99.90;;;;;;4229631;28;20023;-61
2023/01/17 09:42:04;;;;;;;1.93;0.60;;;8.80;99.90;;;;;;4228326;28;20085;-62
2023/01/17 09:44:17;;;;;;;33.90;4.63;;;8.90;99.90;;;;;;4229672;28;20035;-62
2023/01/17 09:46:26;;;;;;;18.13;3.80;;;8.90;99.90;;;;;;4228360;28;20027;-61
2023/01/17 09:48:36;;;;;;;11.50;2.30;;;9.00;99.90;;;;;;4229259;28;20089;-62
2023/01/17 09:50:49;;;;;;;2.93;1.00;;;9.00;99.90;;;;;;4228723;28;20737;-61
2023/01/17 09:52:59;;;;;;;1.80;0.87;;;9.10;99.90;;;;;;4229424;28;20032;-62
2023/01/17 09:55:00;;;;;;;1.85;0.50;;;9.20;99.90;;;;;;4228169;28;20076;-68
2023/01/17 09:57:07;;;;;;;5.63;0.80;;;9.10;99.90;;;;;;4228971;28;20019;-61
2023/01/17 09:59:29;;;;;;;2.00;1.00;;;9.00;99.90;;;;;;4227842;28;20413;-63
2023/01/17 10:01:54;;;;;;;5.00;0.77;;;9.00;99.90;;;;;;4229229;28;20023;-62
2023/01/17 10:04:09;;;;;;;2.33;0.50;;;9.00;99.90;;;;;;4228093;28;20019;-61
2023/01/17 10:06:54;;;;;;;0.77;0.60;;;9.00;99.90;;;;;;4228645;28;20027;-63
2023/01/17 10:09:11;;;;;;;0.63;0.30;;;9.10;99.90;;;;;;4228836;28;20052;-63
2023/01/17 10:11:15;;;;;;;2.63;0.97;;;9.30;99.90;;;;;;4227915;28;20422;-61
2023/01/17 10:13:19;;;;;;;0.80;0.27;;;9.40;99.90;;;;;;4229037;28;20036;-66
2023/01/17 10:15:44;;;;;;;1.57;0.20;;;9.60;99.90;;;;;;4228128;28;20032;-61
2023/01/17 10:18:06;;;;;;;0.10;0.10;;;9.70;99.90;;;;;;4228774;28;20084;-63
2023/01/17 10:20:32;;;;;;;0.57;0.43;;;9.80;99.90;;;;;;4228191;28;20031;-62
2023/01/17 10:22:33;;;;;;;1.23;0.20;;;9.90;99.90;;;;;;4228762;28;20057;-64
2023/01/17 10:24:37;;;;;;;2.33;0.87;;;9.90;99.90;;;;;;4227643;28;20019;-62
2023/01/17 10:26:38;;;;;;;0.77;0.20;;;10.00;99.90;;;;;;4229081;28;20076;-65
2023/01/17 10:28:46;;;;;;;0.73;0.43;;;10.10;99.90;;;;;;4226695;28;20031;-62
2023/01/17 10:30:49;;;;;;;0.40;0.30;;;10.20;99.90;;;;;;4228734;28;20019;-63
2023/01/17 10:32:50;;;;;;;1.67;0.20;;;10.10;99.90;;;;;;4227874;28;20085;-62
2023/01/17 10:34:58;;;;;;;0.50;0.30;;;10.10;99.90;;;;;;4228324;28;20048;-62
2023/01/17 10:37:10;;;;;;;0.30;0.20;;;10.10;99.90;;;;;;4227839;28;20092;-61
2023/01/17 10:39:24;;;;;;;1.90;0.30;;;10.20;99.90;;;;;;4228348;28;20043;-62
2023/01/17 10:41:36;;;;;;;0.87;0.37;;;10.20;99.90;;;;;;4227547;28;20076;-61
2023/01/17 10:44:06;;;;;;;0.57;0.37;;;10.30;99.90;;;;;;4228521;28;20027;-62
2023/01/17 10:46:15;;;;;;;0.65;0.45;;;10.30;99.90;;;;;;4200555;28;20032;-62
2023/01/17 10:48:35;;;;;;;0.20;0.20;;;10.30;99.90;;;;;;4228062;28;20036;-64
2023/01/17 10:50:52;;;;;;;0.70;0.33;;;10.40;99.90;;;;;;4227664;28;20046;-61
2023/01/17 10:52:54;;;;;;;1.27;0.50;;;10.50;99.90;;;;;;4228484;28;20356;-62
2023/01/17 10:55:23;;;;;;;0.37;0.13;;;10.60;99.90;;;;;;4226984;28;20039;-61
2023/01/17 10:57:26;;;;;;;0.43;0.30;;;10.60;99.90;;;;;;4228197;28;20039;-64
2023/01/17 10:59:33;;;;;;;0.50;0.40;;;10.60;99.90;;;;;;4226415;28;20876;-62
2023/01/17 11:01:34;;;;;;;0.50;0.20;;;10.70;99.90;;;;;;4227998;28;20043;-62
2023/01/17 11:03:36;;;;;;;0.30;0.20;;;10.70;99.90;;;;;;4226953;28;20487;-61
2023/01/17 11:05:39;;;;;;;1.30;0.70;;;10.70;99.90;;;;;;4227959;28;20023;-62
2023/01/17 11:08:02;;;;;;;0.20;0.10;;;10.70;99.90;;;;;;4227077;28;20028;-62
2023/01/17 11:10:04;;;;;;;2.93;0.20;;;10.70;99.90;;;;;;4228113;28;20167;-61
2023/01/17 11:12:47;;;;;;;0.80;0.30;;;10.70;99.90;;;;;;4227001;28;20032;-61
2023/01/17 11:15:16;;;;;;;0.47;0.30;;;10.60;99.90;;;;;;4175299;28;20071;-60
2023/01/17 11:17:18;;;;;;;0.30;0.20;;;10.60;99.90;;;;;;4214626;28;20048;-62
2023/01/17 11:19:31;;;;;;;1.13;0.30;;;10.60;99.90;;;;;;4227508;28;20062;-62
2023/01/17 11:21:32;;;;;;;1.67;0.23;;;10.60;99.90;;;;;;4227104;28;20084;-62
2023/01/17 11:23:34;;;;;;;3.37;0.33;;;10.60;99.90;;;;;;4227931;28;20498;-61
2023/01/17 11:25:36;;;;;;;1.87;0.50;;;10.60;99.90;;;;;;4226492;28;20036;-61
2023/01/17 11:27:39;;;;;;;1.10;0.57;;;10.70;99.90;;;;;;4228033;28;20023;-61
2023/01/17 11:29:40;;;;;;;0.30;0.17;;;10.80;99.90;;;;;;4226170;28;20055;-61
2023/01/17 11:31:42;;;;;;;0.67;0.20;;;10.90;99.90;;;;;;4227907;28;20031;-61
2023/01/17 11:33:52;;;;;;;2.23;0.60;;;10.90;99.90;;;;;;4226724;28;20032;-62
2023/01/17 11:35:53;;;;;;;1.87;0.30;;;10.90;99.90;;;;;;4227676;28;20500;-63
2023/01/17 11:38:12;;;;;;;0.30;0.20;;;10.90;99.90;;;;;;4226697;28;20044;-62
2023/01/17 11:40:22;;;;;;;0.17;0.10;;;10.90;99.90;;;;;;4227416;28;20100;-61
2023/01/17 11:42:33;;;;;;;0.90;0.43;;;10.80;99.90;;;;;;4226505;28;20924;-62
2023/01/17 11:44:35;;;;;;;0.52;0.25;;;10.90;99.90;;;;;;4227641;28;20035;-61
2023/01/17 11:46:37;;;;;;;0.50;0.27;;;10.90;99.90;;;;;;4226076;28;20028;-64
2023/01/17 11:48:39;;;;;;;0.13;0.10;;;10.90;99.90;;;;;;4227501;28;20073;-62
2023/01/17 11:50:52;;;;;;;0.33;0.20;;;10.90;99.90;;;;;;4227137;28;20020;-61
2023/01/17 11:53:23;;;;;;;0.27;0.13;;;11.00;99.90;;;;;;4227623;28;20361;-66
2023/01/17 11:55:24;;;;;;;;;;;11.00;99.90;;;;;;4226808;28;20135;-61
2023/01/17 11:57:31;;;;;;;0.10;0.10;;;11.00;99.90;;;;;;4227489;28;19965;-63
2023/01/17 11:59:41;;;;;;;0.40;0.23;;;11.00;99.90;;;;;;4226251;28;20151;-61
2023/01/17 12:01:56;;;;;;;1.27;0.10;;;11.00;99.90;;;;;;4227544;28;20484;-61
2023/01/17 12:04:15;;;;;;;0.50;0.20;;;11.00;99.90;;;;;;4226366;28;20039;-63
2023/01/17 12:06:58;;;;;;;0.27;0.20;;;11.10;99.90;;;;;;4227573;28;20430;-65
2023/01/17 12:09:09;;;;;;;1.80;0.40;;;11.20;99.90;;;;;;4218465;28;20092;-62
2023/01/17 12:11:36;;;;;;;1.95;0.80;;;11.20;99.90;;;;;;4227759;28;20127;-62
2023/01/17 12:14:01;;;;;;;0.60;0.60;;;11.30;99.90;;;;;;4225942;28;20399;-63
2023/01/17 12:16:32;;;;;;;0.50;0.27;;;11.40;99.90;;;;;;4226883;28;20533;-59
2023/01/17 12:18:57;;;;;;;1.93;0.93;;;11.40;99.90;;;;;;4227071;28;20047;-63
2023/01/17 12:20:58;;;;;;;3.17;1.50;;;11.40;99.90;;;;;;4225118;28;20036;-62